sensor_id;sensor_type;location;lat;lon;timestamp;pressure;altitude;pressure_sealevel;temperature;humidity
80103;BME280;69410;47.648;19.030;2023-04-15T00:00:06;99506.13;;;5.99;86.81
80103;BME280;69410;47.648;19.030;2023-04-15T00:00:39;99507.66;;;6.02;87.42
80103;BME280;69410;47.648;19.030;2023-04-15T00:01:10;99507.09;;;5.98;86.90
80103;BME280;69410;47.648;19.030;2023-04-15T00:01:41;99504.34;;;6.00;87.02
80103;BME280;69410;47.648;19.030;2023-04-15T00:02:15;99505.03;;;6.02;87.45
80103;BME280;69410;47.648;19.030;2023-04-15T00:02:47;99501.47;;;6.03;87.19
80103;BME280;69410;47.648;19.030;2023-04-15T00:03:18;99507.53;;;6.03;87.39
80103;BME280;69410;47.648;19.030;2023-04-15T00:03:51;99507.44;;;6.05;87.75
80103;BME280;69410;47.648;19.030;2023-04-15T00:04:23;99505.50;;;6.07;88.13
80103;BME280;69410;47.648;19.030;2023-04-15T00:04:55;99511.56;;;6.07;87.92
80103;BME280;69410;47.648;19.030;2023-04-15T00:05:28;99509.66;;;6.09;88.18
80103;BME280;69410;47.648;19.030;2023-04-15T00:05:59;99510.47;;;6.10;87.72
80103;BME280;69410;47.648;19.030;2023-04-15T00:06:31;99513.34;;;6.07;86.90
80103;BME280;69410;47.648;19.030;2023-04-15T00:07:03;99511.81;;;6.04;87.02
80103;BME280;69410;47.648;19.030;2023-04-15T00:07:34;99508.22;;;6.05;87.46
80103;BME280;69410;47.648;19.030;2023-04-15T00:08:05;99506.59;;;6.04;86.60
80103;BME280;69410;47.648;19.030;2023-04-15T00:08:37;99511.09;;;6.02;85.93
80103;BME280;69410;47.648;19.030;2023-04-15T00:09:08;99514.56;;;6.03;86.34
80103;BME280;69410;47.648;19.030;2023-04-15T00:09:40;99500.66;;;6.02;86.16
80103;BME280;69410;47.648;19.030;2023-04-15T00:10:12;99512.50;;;6.06;86.27
80103;BME280;69410;47.648;19.030;2023-04-15T00:10:44;99511.56;;;6.07;86.73
80103;BME280;69410;47.648;19.030;2023-04-15T00:11:16;99506.34;;;6.07;87.46
80103;BME280;69410;47.648;19.030;2023-04-15T00:11:49;99510.63;;;6.08;86.75
80103;BME280;69410;47.648;19.030;2023-04-15T00:12:20;99509.66;;;6.09;87.58
80103;BME280;69410;47.648;19.030;2023-04-15T00:12:51;99510.38;;;6.11;87.01
80103;BME280;69410;47.648;19.030;2023-04-15T00:13:23;99508.00;;;6.08;87.44
80103;BME280;69410;47.648;19.030;2023-04-15T00:13:54;99504.31;;;6.11;88.44
80103;BME280;69410;47.648;19.030;2023-04-15T00:14:25;99508.59;;;6.12;87.04
80103;BME280;69410;47.648;19.030;2023-04-15T00:14:56;99501.69;;;6.11;86.83
80103;BME280;69410;47.648;19.030;2023-04-15T00:15:28;99502.91;;;6.07;85.57
80103;BME280;69410;47.648;19.030;2023-04-15T00:15:59;99508.97;;;6.07;86.40
80103;BME280;69410;47.648;19.030;2023-04-15T00:16:31;99502.63;;;6.10;87.11
80103;BME280;69410;47.648;19.030;2023-04-15T00:17:02;99511.31;;;6.10;85.54
80103;BME280;69410;47.648;19.030;2023-04-15T00:17:34;99500.75;;;6.12;86.43
80103;BME280;69410;47.648;19.030;2023-04-15T00:18:05;99508.69;;;6.10;86.24
80103;BME280;69410;47.648;19.030;2023-04-15T00:18:37;99503.47;;;6.10;86.31
80103;BME280;69410;47.648;19.030;2023-04-15T00:19:09;99498.97;;;6.12;86.80
80103;BME280;69410;47.648;19.030;2023-04-15T00:19:40;99504.88;;;6.14;86.41
80103;BME280;69410;47.648;19.030;2023-04-15T00:20:13;99507.50;;;6.14;86.66
80103;BME280;69410;47.648;19.030;2023-04-15T00:20:45;99500.38;;;6.17;86.89
80103;BME280;69410;47.648;19.030;2023-04-15T00:21:16;99507.13;;;6.19;87.94
80103;BME280;69410;47.648;19.030;2023-04-15T00:21:47;99504.63;;;6.18;86.80
80103;BME280;69410;47.648;19.030;2023-04-15T00:22:19;99501.06;;;6.19;87.12
80103;BME280;69410;47.648;19.030;2023-04-15T00:22:50;99503.78;;;6.17;87.50
80103;BME280;69410;47.648;19.030;2023-04-15T00:23:21;99506.66;;;6.14;87.19
80103;BME280;69410;47.648;19.030;2023-04-15T00:23:53;99503.00;;;6.17;87.08
80103;BME280;69410;47.648;19.030;2023-04-15T00:24:25;99509.03;;;6.17;86.47
80103;BME280;69410;47.648;19.030;2023-04-15T00:24:56;99509.75;;;6.19;87.56
80103;BME280;69410;47.648;19.030;2023-04-15T00:25:27;99512.47;;;6.18;87.11
80103;BME280;69410;47.648;19.030;2023-04-15T00:25:59;99513.31;;;6.18;86.57
80103;BME280;69410;47.648;19.030;2023-04-15T00:26:30;99505.81;;;6.13;86.11
80103;BME280;69410;47.648;19.030;2023-04-15T00:27:01;99504.06;;;6.14;85.63
80103;BME280;69410;47.648;19.030;2023-04-15T00:27:33;99508.59;;;6.12;85.97
80103;BME280;69410;47.648;19.030;2023-04-15T00:28:04;99509.78;;;6.08;86.24
80103;BME280;69410;47.648;19.030;2023-04-15T00:28:35;99514.88;;;6.09;85.52
80103;BME280;69410;47.648;19.030;2023-04-15T00:29:06;99511.56;;;6.07;86.14
80103;BME280;69410;47.648;19.030;2023-04-15T00:29:38;99509.06;;;6.06;85.55
80103;BME280;69410;47.648;19.030;2023-04-15T00:30:10;99509.91;;;6.06;86.62
80103;BME280;69410;47.648;19.030;2023-04-15T00:30:41;99505.50;;;6.07;86.43
80103;BME280;69410;47.648;19.030;2023-04-15T00:31:13;99507.28;;;6.06;85.90
80103;BME280;69410;47.648;19.030;2023-04-15T00:31:45;99510.47;;;6.10;85.99
80103;BME280;69410;47.648;19.030;2023-04-15T00:32:15;99497.41;;;6.10;85.97
80103;BME280;69410;47.648;19.030;2023-04-15T00:32:47;99507.88;;;6.10;86.83
80103;BME280;69410;47.648;19.030;2023-04-15T00:33:19;99504.31;;;6.11;87.20
80103;BME280;69410;47.648;19.030;2023-04-15T00:33:49;99501.56;;;6.12;86.32
80103;BME280;69410;47.648;19.030;2023-04-15T00:34:22;99496.34;;;6.12;86.42
80103;BME280;69410;47.648;19.030;2023-04-15T00:34:53;99507.63;;;6.13;86.98
80103;BME280;69410;47.648;19.030;2023-04-15T00:35:26;99507.75;;;6.11;86.69
80103;BME280;69410;47.648;19.030;2023-04-15T00:35:58;99502.63;;;6.10;86.38
80103;BME280;69410;47.648;19.030;2023-04-15T00:36:29;99501.00;;;6.09;86.64
80103;BME280;69410;47.648;19.030;2023-04-15T00:37:01;99504.31;;;6.11;86.77
80103;BME280;69410;47.648;19.030;2023-04-15T00:37:33;99498.13;;;6.12;88.06
80103;BME280;69410;47.648;19.030;2023-04-15T00:38:05;99499.66;;;6.14;87.75
80103;BME280;69410;47.648;19.030;2023-04-15T00:38:37;99498.72;;;6.16;88.45
80103;BME280;69410;47.648;19.030;2023-04-15T00:39:09;99504.78;;;6.16;88.20
80103;BME280;69410;47.648;19.030;2023-04-15T00:39:40;99503.00;;;6.17;87.35
80103;BME280;69410;47.648;19.030;2023-04-15T00:40:12;99503.00;;;6.17;87.06
80103;BME280;69410;47.648;19.030;2023-04-15T00:40:44;99497.75;;;6.17;87.27
80103;BME280;69410;47.648;19.030;2023-04-15T00:41:16;99495.16;;;6.17;88.13
80103;BME280;69410;47.648;19.030;2023-04-15T00:41:48;99501.06;;;6.19;87.97
80103;BME280;69410;47.648;19.030;2023-04-15T00:42:21;99505.34;;;6.20;87.56
80103;BME280;69410;47.648;19.030;2023-04-15T00:42:52;99496.78;;;6.18;86.69
80103;BME280;69410;47.648;19.030;2023-04-15T00:43:24;99507.38;;;6.16;87.14
80103;BME280;69410;47.648;19.030;2023-04-15T00:43:56;99504.31;;;6.11;86.29
80103;BME280;69410;47.648;19.030;2023-04-15T00:44:27;99507.63;;;6.13;86.71
80103;BME280;69410;47.648;19.030;2023-04-15T00:44:58;99497.03;;;6.14;86.93
80103;BME280;69410;47.648;19.030;2023-04-15T00:45:29;99505.59;;;6.17;87.23
80103;BME280;69410;47.648;19.030;2023-04-15T00:46:03;99500.38;;;6.17;87.03
80103;BME280;69410;47.648;19.030;2023-04-15T00:46:35;99506.41;;;6.17;87.81
80103;BME280;69410;47.648;19.030;2023-04-15T00:47:08;99503.00;;;6.17;87.31
80103;BME280;69410;47.648;19.030;2023-04-15T00:47:40;99498.81;;;6.14;87.18
80103;BME280;69410;47.648;19.030;2023-04-15T00:48:12;99494.31;;;6.16;86.61
80103;BME280;69410;47.648;19.030;2023-04-15T00:48:45;99496.94;;;6.16;87.39
80103;BME280;69410;47.648;19.030;2023-04-15T00:49:16;99493.34;;;6.17;87.61
80103;BME280;69410;47.648;19.030;2023-04-15T00:49:49;99496.78;;;6.18;87.45
80103;BME280;69410;47.648;19.030;2023-04-15T00:50:19;99493.09;;;6.20;87.73
80103;BME280;69410;47.648;19.030;2023-04-15T00:50:52;99496.56;;;6.21;87.56
80103;BME280;69410;47.648;19.030;2023-04-15T00:51:23;99495.72;;;6.20;88.50
80103;BME280;69410;47.648;19.030;2023-04-15T00:51:55;99498.81;;;6.14;87.20
80103;BME280;69410;47.648;19.030;2023-04-15T00:52:26;99496.94;;;6.16;87.69
80103;BME280;69410;47.648;19.030;2023-04-15T00:52:57;99495.84;;;6.19;87.67
80103;BME280;69410;47.648;19.030;2023-04-15T00:53:28;99493.34;;;6.17;87.29
80103;BME280;69410;47.648;19.030;2023-04-15T00:54:00;99499.28;;;6.19;86.94
80103;BME280;69410;47.648;19.030;2023-04-15T00:54:31;99495.72;;;6.20;88.07
80103;BME280;69410;47.648;19.030;2023-04-15T00:55:03;99490.34;;;6.22;87.59
80103;BME280;69410;47.648;19.030;2023-04-15T00:55:36;99491.19;;;6.22;87.64
80103;BME280;69410;47.648;19.030;2023-04-15T00:56:08;99491.06;;;6.24;87.99
80103;BME280;69410;47.648;19.030;2023-04-15T00:56:39;99499.03;;;6.22;87.85
80103;BME280;69410;47.648;19.030;2023-04-15T00:57:11;99494.88;;;6.20;87.80
80103;BME280;69410;47.648;19.030;2023-04-15T00:57:43;99499.41;;;6.18;87.99
80103;BME280;69410;47.648;19.030;2023-04-15T00:58:14;99494.44;;;6.14;87.58
80103;BME280;69410;47.648;19.030;2023-04-15T00:58:47;99494.88;;;6.20;87.33
80103;BME280;69410;47.648;19.030;2023-04-15T00:59:19;99492.28;;;6.20;87.61
80103;BME280;69410;47.648;19.030;2023-04-15T00:59:51;99494.06;;;6.19;87.88
80103;BME280;69410;47.648;19.030;2023-04-15T01:00:24;99496.41;;;6.22;87.43
80103;BME280;69410;47.648;19.030;2023-04-15T01:00:55;99490.22;;;6.23;87.65
80103;BME280;69410;47.648;19.030;2023-04-15T01:01:27;99492.72;;;6.25;87.75
80103;BME280;69410;47.648;19.030;2023-04-15T01:01:59;99494.38;;;6.26;87.81
80103;BME280;69410;47.648;19.030;2023-04-15T01:02:31;99496.03;;;6.27;87.44
80103;BME280;69410;47.648;19.030;2023-04-15T01:03:02;99497.56;;;6.29;87.71
80103;BME280;69410;47.648;19.030;2023-04-15T01:03:34;99488.19;;;6.27;87.73
80103;BME280;69410;47.648;19.030;2023-04-15T01:04:05;99493.31;;;6.28;87.92
80103;BME280;69410;47.648;19.030;2023-04-15T01:04:36;99489.84;;;6.28;87.75
80103;BME280;69410;47.648;19.030;2023-04-15T01:05:08;99496.88;;;6.27;87.21
80103;BME280;69410;47.648;19.030;2023-04-15T01:05:39;99495.09;;;6.28;87.36
80103;BME280;69410;47.648;19.030;2023-04-15T01:06:12;99498.28;;;6.31;87.50
80103;BME280;69410;47.648;19.030;2023-04-15T01:06:44;99491.94;;;6.34;87.79
80103;BME280;69410;47.648;19.030;2023-04-15T01:07:15;99491.13;;;6.33;87.33
80103;BME280;69410;47.648;19.030;2023-04-15T01:07:47;99490.16;;;6.34;87.41
80103;BME280;69410;47.648;19.030;2023-04-15T01:08:19;99493.72;;;6.33;87.58
80103;BME280;69410;47.648;19.030;2023-04-15T01:08:50;99488.66;;;6.32;87.59
80103;BME280;69410;47.648;19.030;2023-04-15T01:09:21;99486.72;;;6.34;87.56
80103;BME280;69410;47.648;19.030;2023-04-15T01:09:53;99486.16;;;6.30;87.60
80103;BME280;69410;47.648;19.030;2023-04-15T01:10:24;99489.59;;;6.31;87.75
80103;BME280;69410;47.648;19.030;2023-04-15T01:10:56;99483.53;;;6.30;87.67
80103;BME280;69410;47.648;19.030;2023-04-15T01:11:28;99481.63;;;6.32;87.93
80103;BME280;69410;47.648;19.030;2023-04-15T01:12:01;99484.47;;;6.29;88.42
80103;BME280;69410;47.648;19.030;2023-04-15T01:12:33;99481.19;;;6.27;88.00
80103;BME280;69410;47.648;19.030;2023-04-15T01:13:05;99485.31;;;6.30;87.37
80103;BME280;69410;47.648;19.030;2023-04-15T01:13:37;99477.47;;;6.30;87.95
80103;BME280;69410;47.648;19.030;2023-04-15T01:14:09;99483.69;;;6.29;86.81
80103;BME280;69410;47.648;19.030;2023-04-15T01:14:40;99487.09;;;6.29;86.60
80103;BME280;69410;47.648;19.030;2023-04-15T01:15:11;99485.31;;;6.30;86.99
80103;BME280;69410;47.648;19.030;2023-04-15T01:15:43;99487.81;;;6.31;86.87
80103;BME280;69410;47.648;19.030;2023-04-15T01:16:14;99486.16;;;6.30;86.61
80103;BME280;69410;47.648;19.030;2023-04-15T01:16:46;99490.91;;;6.25;86.97
80103;BME280;69410;47.648;19.030;2023-04-15T01:17:18;99492.72;;;6.25;87.09
80103;BME280;69410;47.648;19.030;2023-04-15T01:17:50;99489.28;;;6.24;86.20
80103;BME280;69410;47.648;19.030;2023-04-15T01:18:21;99489.13;;;6.26;86.11
80103;BME280;69410;47.648;19.030;2023-04-15T01:18:54;99489.03;;;6.27;87.23
80103;BME280;69410;47.648;19.030;2023-04-15T01:19:25;99496.59;;;6.30;86.77
80103;BME280;69410;47.648;19.030;2023-04-15T01:19:57;99499.09;;;6.32;86.96
80103;BME280;69410;47.648;19.030;2023-04-15T01:20:29;99490.44;;;6.31;88.02
80103;BME280;69410;47.648;19.030;2023-04-15T01:21:00;99486.97;;;6.31;88.20
80103;BME280;69410;47.648;19.030;2023-04-15T01:21:35;99486.97;;;6.31;87.97
80103;BME280;69410;47.648;19.030;2023-04-15T01:22:07;99486.03;;;6.32;88.26
80103;BME280;69410;47.648;19.030;2023-04-15T01:22:39;99487.81;;;6.31;87.37
80103;BME280;69410;47.648;19.030;2023-04-15T01:23:11;99488.66;;;6.32;87.74
80103;BME280;69410;47.648;19.030;2023-04-15T01:23:46;99486.16;;;6.30;88.25
80103;BME280;69410;47.648;19.030;2023-04-15T01:24:18;99485.19;;;6.31;88.35
80103;BME280;69410;47.648;19.030;2023-04-15T01:24:54;99480.81;;;6.32;88.92
80103;BME280;69410;47.648;19.030;2023-04-15T01:25:33;99483.41;;;6.32;88.41
80103;BME280;69410;47.648;19.030;2023-04-15T01:26:05;99482.00;;;6.28;87.70
80103;BME280;69410;47.648;19.030;2023-04-15T01:26:37;99477.84;;;6.25;88.09
80103;BME280;69410;47.648;19.030;2023-04-15T01:27:09;99483.91;;;6.26;89.03
80103;BME280;69410;47.648;19.030;2023-04-15T01:27:41;99483.22;;;6.24;87.95
80103;BME280;69410;47.648;19.030;2023-04-15T01:28:13;99481.28;;;6.26;88.63
80103;BME280;69410;47.648;19.030;2023-04-15T01:28:45;99485.47;;;6.28;87.96
80103;BME280;69410;47.648;19.030;2023-04-15T01:29:15;99478.81;;;6.24;88.49
80103;BME280;69410;47.648;19.030;2023-04-15T01:29:48;99488.19;;;6.27;87.68
80103;BME280;69410;47.648;19.030;2023-04-15T01:30:20;99484.47;;;6.29;87.63
80103;BME280;69410;47.648;19.030;2023-04-15T01:31:04;99479.78;;;6.23;87.00
80103;BME280;69410;47.648;19.030;2023-04-15T01:31:38;99482.50;;;6.22;87.48
80103;BME280;69410;47.648;19.030;2023-04-15T01:32:10;99483.91;;;6.26;87.19
80103;BME280;69410;47.648;19.030;2023-04-15T01:32:41;99487.50;;;6.25;86.57
80103;BME280;69410;47.648;19.030;2023-04-15T01:33:12;99482.13;;;6.26;86.52
80103;BME280;69410;47.648;19.030;2023-04-15T01:33:45;99486.41;;;6.27;87.38
80103;BME280;69410;47.648;19.030;2023-04-15T01:34:16;99489.03;;;6.27;86.77
80103;BME280;69410;47.648;19.030;2023-04-15T01:34:47;99483.06;;;6.25;87.11
80103;BME280;69410;47.648;19.030;2023-04-15T01:35:19;99490.69;;;6.28;87.37
80103;BME280;69410;47.648;19.030;2023-04-15T01:35:51;99486.03;;;6.32;87.88
80103;BME280;69410;47.648;19.030;2023-04-15T01:36:22;99485.19;;;6.31;87.66
80103;BME280;69410;47.648;19.030;2023-04-15T01:36:54;99488.31;;;6.25;86.86
80103;BME280;69410;47.648;19.030;2023-04-15T01:37:25;99477.03;;;6.25;86.36
80103;BME280;69410;47.648;19.030;2023-04-15T01:38:04;99480.22;;;6.28;87.09
80103;BME280;69410;47.648;19.030;2023-04-15T01:38:37;99484.47;;;6.29;87.23
80103;BME280;69410;47.648;19.030;2023-04-15T01:39:08;99486.97;;;6.31;86.52
80103;BME280;69410;47.648;19.030;2023-04-15T01:39:39;99485.31;;;6.30;86.54
80103;BME280;69410;47.648;19.030;2023-04-15T01:40:11;99486.16;;;6.30;87.42
80103;BME280;69410;47.648;19.030;2023-04-15T01:40:45;99482.69;;;6.30;86.56
80103;BME280;69410;47.648;19.030;2023-04-15T01:41:16;99482.59;;;6.31;86.95
80103;BME280;69410;47.648;19.030;2023-04-15T01:41:53;99482.69;;;6.30;86.90
80103;BME280;69410;47.648;19.030;2023-04-15T01:42:24;99480.66;;;6.33;86.13
80103;BME280;69410;47.648;19.030;2023-04-15T01:42:55;99481.63;;;6.32;86.57
80103;BME280;69410;47.648;19.030;2023-04-15T01:43:27;99484.94;;;6.34;86.66
80103;BME280;69410;47.648;19.030;2023-04-15T01:43:58;99483.41;;;6.32;86.62
80103;BME280;69410;47.648;19.030;2023-04-15T01:44:29;99486.72;;;6.34;86.60
80103;BME280;69410;47.648;19.030;2023-04-15T01:45:01;99487.44;;;6.36;86.56
80103;BME280;69410;47.648;19.030;2023-04-15T01:45:32;99483.72;;;6.38;86.96
80103;BME280;69410;47.648;19.030;2023-04-15T01:46:04;99484.56;;;6.39;87.50
80103;BME280;69410;47.648;19.030;2023-04-15T01:46:36;99489.91;;;6.37;86.50
80103;BME280;69410;47.648;19.030;2023-04-15T01:47:07;99488.84;;;6.40;87.13
80103;BME280;69410;47.648;19.030;2023-04-15T01:47:38;99483.63;;;6.40;85.75
80103;BME280;69410;47.648;19.030;2023-04-15T01:48:10;99489.91;;;6.37;85.63
80103;BME280;69410;47.648;19.030;2023-04-15T01:48:41;99495.75;;;6.41;86.02
80103;BME280;69410;47.648;19.030;2023-04-15T01:49:12;99487.19;;;6.39;85.69
80103;BME280;69410;47.648;19.030;2023-04-15T01:49:44;99486.34;;;6.38;85.57
80103;BME280;69410;47.648;19.030;2023-04-15T01:50:15;99489.91;;;6.37;86.22
80103;BME280;69410;47.648;19.030;2023-04-15T01:50:46;99489.53;;;6.42;86.10
80103;BME280;69410;47.648;19.030;2023-04-15T01:51:17;99488.97;;;6.38;85.65
80103;BME280;69410;47.648;19.030;2023-04-15T01:51:49;99488.84;;;6.40;85.54
80103;BME280;69410;47.648;19.030;2023-04-15T01:52:20;99490.63;;;6.39;85.13
80103;BME280;69410;47.648;19.030;2023-04-15T01:52:51;99485.41;;;6.39;85.36
80103;BME280;69410;47.648;19.030;2023-04-15T01:53:24;99489.69;;;6.40;84.90
80103;BME280;69410;47.648;19.030;2023-04-15T01:53:55;99490.38;;;6.42;85.81
80103;BME280;69410;47.648;19.030;2023-04-15T01:54:26;99497.94;;;6.45;85.67
80103;BME280;69410;47.648;19.030;2023-04-15T01:54:58;99487.91;;;6.41;86.06
80103;BME280;69410;47.648;19.030;2023-04-15T01:55:29;99492.16;;;6.42;85.49
80103;BME280;69410;47.648;19.030;2023-04-15T01:56:02;99492.97;;;6.42;86.25
80103;BME280;69410;47.648;19.030;2023-04-15T01:56:34;99491.91;;;6.45;86.04
80103;BME280;69410;47.648;19.030;2023-04-15T01:57:04;99490.00;;;6.47;86.64
80103;BME280;69410;47.648;19.030;2023-04-15T01:57:35;99495.91;;;6.49;87.41
80103;BME280;69410;47.648;19.030;2023-04-15T01:58:07;99498.28;;;6.52;86.89
80103;BME280;69410;47.648;19.030;2023-04-15T01:58:38;99498.41;;;6.50;86.70
80103;BME280;69410;47.648;19.030;2023-04-15T01:59:10;99496.75;;;6.49;85.53
80103;BME280;69410;47.648;19.030;2023-04-15T01:59:42;99493.28;;;6.49;85.83
80103;BME280;69410;47.648;19.030;2023-04-15T02:00:13;99493.28;;;6.49;86.10
80103;BME280;69410;47.648;19.030;2023-04-15T02:00:44;99496.50;;;6.52;85.99
80103;BME280;69410;47.648;19.030;2023-04-15T02:01:16;99500.75;;;6.53;86.75
80103;BME280;69410;47.648;19.030;2023-04-15T02:01:49;99497.19;;;6.54;86.05
80103;BME280;69410;47.648;19.030;2023-04-15T02:02:20;99497.56;;;6.50;86.47
80103;BME280;69410;47.648;19.030;2023-04-15T02:02:52;99497.72;;;6.48;85.44
80103;BME280;69410;47.648;19.030;2023-04-15T02:03:24;99497.72;;;6.48;86.10
80103;BME280;69410;47.648;19.030;2023-04-15T02:03:55;99497.84;;;6.47;86.54
80103;BME280;69410;47.648;19.030;2023-04-15T02:04:27;99500.19;;;6.50;87.26
80103;BME280;69410;47.648;19.030;2023-04-15T02:04:58;99495.78;;;6.50;86.96
80103;BME280;69410;47.648;19.030;2023-04-15T02:05:29;99502.69;;;6.51;87.39
80103;BME280;69410;47.648;19.030;2023-04-15T02:06:00;99496.50;;;6.52;86.82
80103;BME280;69410;47.648;19.030;2023-04-15T02:06:32;99503.38;;;6.53;86.45
80103;BME280;69410;47.648;19.030;2023-04-15T02:07:03;99502.53;;;6.53;86.59
80103;BME280;69410;47.648;19.030;2023-04-15T02:07:34;99498.66;;;6.47;86.57
80103;BME280;69410;47.648;19.030;2023-04-15T02:08:06;99495.22;;;6.47;85.48
80103;BME280;69410;47.648;19.030;2023-04-15T02:08:37;99504.47;;;6.51;85.36
80103;BME280;69410;47.648;19.030;2023-04-15T02:09:09;99505.16;;;6.53;85.92
80103;BME280;69410;47.648;19.030;2023-04-15T02:09:41;99496.25;;;6.55;85.22
80103;BME280;69410;47.648;19.030;2023-04-15T02:10:13;99499.44;;;6.59;86.29
80103;BME280;69410;47.648;19.030;2023-04-15T02:10:45;99501.09;;;6.60;85.79
80103;BME280;69410;47.648;19.030;2023-04-15T02:11:19;99499.44;;;6.59;86.40
80103;BME280;69410;47.648;19.030;2023-04-15T02:11:50;99498.59;;;6.58;86.34
80103;BME280;69410;47.648;19.030;2023-04-15T02:12:23;99501.34;;;6.57;87.02
80103;BME280;69410;47.648;19.030;2023-04-15T02:12:55;99503.84;;;6.58;86.17
80103;BME280;69410;47.648;19.030;2023-04-15T02:13:26;99495.41;;;6.55;86.08
80103;BME280;69410;47.648;19.030;2023-04-15T02:13:57;99489.47;;;6.53;86.01
80103;BME280;69410;47.648;19.030;2023-04-15T02:14:29;99493.47;;;6.57;86.20
80103;BME280;69410;47.648;19.030;2023-04-15T02:15:00;99495.97;;;6.58;85.47
80103;BME280;69410;47.648;19.030;2023-04-15T02:15:30;99495.16;;;6.58;85.04
80103;BME280;69410;47.648;19.030;2023-04-15T02:16:03;99495.03;;;6.59;85.93
80103;BME280;69410;47.648;19.030;2023-04-15T02:16:34;99498.47;;;6.60;86.20
80103;BME280;69410;47.648;19.030;2023-04-15T02:17:05;99497.75;;;6.58;85.88
80103;BME280;69410;47.648;19.030;2023-04-15T02:17:38;99498.72;;;6.57;85.68
80103;BME280;69410;47.648;19.030;2023-04-15T02:18:09;99496.94;;;6.57;86.36
80103;BME280;69410;47.648;19.030;2023-04-15T02:18:39;99495.28;;;6.56;86.69
80103;BME280;69410;47.648;19.030;2023-04-15T02:19:12;99495.97;;;6.58;86.78
80103;BME280;69410;47.648;19.030;2023-04-15T02:19:43;99488.84;;;6.60;86.56
80103;BME280;69410;47.648;19.030;2023-04-15T02:20:14;99495.16;;;6.58;86.60
80103;BME280;69410;47.648;19.030;2023-04-15T02:20:45;99491.84;;;6.56;85.90
80103;BME280;69410;47.648;19.030;2023-04-15T02:21:18;99494.47;;;6.56;86.31
80103;BME280;69410;47.648;19.030;2023-04-15T02:21:49;99494.56;;;6.54;86.21
80103;BME280;69410;47.648;19.030;2023-04-15T02:22:20;99491.28;;;6.52;85.01
80103;BME280;69410;47.648;19.030;2023-04-15T02:22:51;99489.09;;;6.57;85.78
80103;BME280;69410;47.648;19.030;2023-04-15T02:23:23;99495.72;;;6.61;86.09
80103;BME280;69410;47.648;19.030;2023-04-15T02:23:55;99495.97;;;6.58;85.35
80103;BME280;69410;47.648;19.030;2023-04-15T02:24:26;99496.25;;;6.55;85.59
80103;BME280;69410;47.648;19.030;2023-04-15T02:24:57;99496.94;;;6.57;85.09
80103;BME280;69410;47.648;19.030;2023-04-15T02:25:29;99497.91;;;6.56;85.07
80103;BME280;69410;47.648;19.030;2023-04-15T02:26:00;99496.25;;;6.55;85.20
80103;BME280;69410;47.648;19.030;2023-04-15T02:26:33;99494.47;;;6.56;85.42
80103;BME280;69410;47.648;19.030;2023-04-15T02:27:05;99497.06;;;6.56;84.96
80103;BME280;69410;47.648;19.030;2023-04-15T02:27:36;99495.03;;;6.59;85.08
80103;BME280;69410;47.648;19.030;2023-04-15T02:28:07;99502.16;;;6.57;85.84
80103;BME280;69410;47.648;19.030;2023-04-15T02:28:39;99491.59;;;6.59;85.52
80103;BME280;69410;47.648;19.030;2023-04-15T02:29:10;99493.00;;;6.63;85.97
80103;BME280;69410;47.648;19.030;2023-04-15T02:29:42;99490.38;;;6.63;86.12
80103;BME280;69410;47.648;19.030;2023-04-15T02:30:14;99493.09;;;6.61;87.39
80103;BME280;69410;47.648;19.030;2023-04-15T02:30:46;99497.66;;;6.59;86.20
80103;BME280;69410;47.648;19.030;2023-04-15T02:31:18;99489.81;;;6.59;85.93
80103;BME280;69410;47.648;19.030;2023-04-15T02:31:50;99495.59;;;6.63;85.88
80103;BME280;69410;47.648;19.030;2023-04-15T02:32:21;99490.50;;;6.61;87.24
80103;BME280;69410;47.648;19.030;2023-04-15T02:32:53;99497.50;;;6.61;86.83
80103;BME280;69410;47.648;19.030;2023-04-15T02:33:25;99495.72;;;6.61;85.50
80103;BME280;69410;47.648;19.030;2023-04-15T02:33:56;99491.59;;;6.59;85.79
80103;BME280;69410;47.648;19.030;2023-04-15T02:34:27;99489.91;;;6.58;84.86
80103;BME280;69410;47.648;19.030;2023-04-15T02:35:01;99494.31;;;6.57;85.82
80103;BME280;69410;47.648;19.030;2023-04-15T02:35:33;99491.47;;;6.60;85.04
80103;BME280;69410;47.648;19.030;2023-04-15T02:36:05;99499.44;;;6.59;85.65
80103;BME280;69410;47.648;19.030;2023-04-15T02:36:39;99493.81;;;6.64;85.09
80103;BME280;69410;47.648;19.030;2023-04-15T02:37:11;99494.50;;;6.66;85.41
80103;BME280;69410;47.648;19.030;2023-04-15T02:37:42;99493.56;;;6.67;85.59
80103;BME280;69410;47.648;19.030;2023-04-15T02:38:15;99491.78;;;6.67;85.40
80103;BME280;69410;47.648;19.030;2023-04-15T02:38:47;99497.69;;;6.69;84.78
80103;BME280;69410;47.648;19.030;2023-04-15T02:39:18;99486.41;;;6.69;85.43
80103;BME280;69410;47.648;19.030;2023-04-15T02:39:50;99488.19;;;6.68;85.25
80103;BME280;69410;47.648;19.030;2023-04-15T02:40:21;99486.28;;;6.70;86.28
80103;BME280;69410;47.648;19.030;2023-04-15T02:40:52;99485.31;;;6.71;86.00
80103;BME280;69410;47.648;19.030;2023-04-15T02:41:24;99491.38;;;6.72;86.90
80103;BME280;69410;47.648;19.030;2023-04-15T02:41:58;99489.47;;;6.74;86.40
80103;BME280;69410;47.648;19.030;2023-04-15T02:42:30;99489.34;;;6.75;86.56
80103;BME280;69410;47.648;19.030;2023-04-15T02:43:02;99485.88;;;6.75;85.50
80103;BME280;69410;47.648;19.030;2023-04-15T02:43:34;99481.59;;;6.74;85.94
80103;BME280;69410;47.648;19.030;2023-04-15T02:44:05;99484.94;;;6.76;86.33
80103;BME280;69410;47.648;19.030;2023-04-15T02:44:39;99491.97;;;6.75;86.75
80103;BME280;69410;47.648;19.030;2023-04-15T02:45:10;99487.66;;;6.74;86.51
80103;BME280;69410;47.648;19.030;2023-04-15T02:45:42;99487.66;;;6.74;86.82
80103;BME280;69410;47.648;19.030;2023-04-15T02:46:14;99486.59;;;6.77;86.88
80103;BME280;69410;47.648;19.030;2023-04-15T02:46:45;99488.25;;;6.78;87.65
80103;BME280;69410;47.648;19.030;2023-04-15T02:47:20;99489.34;;;6.75;87.50
80103;BME280;69410;47.648;19.030;2023-04-15T02:47:51;99485.78;;;6.76;87.12
80103;BME280;69410;47.648;19.030;2023-04-15T02:48:23;99488.38;;;6.76;87.82